createdAt,value
2018-09-20T00:02:28.273Z,17.7
2018-09-20T00:07:28.091Z,17.6
2018-09-20T00:12:27.564Z,17.6
2018-09-20T00:17:27.233Z,17.5
2018-09-20T00:22:27.226Z,17.4
2018-09-20T00:27:27.854Z,17.4
2018-09-20T00:32:29.315Z,17.2
2018-09-20T00:37:28.156Z,17.1
2018-09-20T00:42:27.264Z,17.1
2018-09-20T00:47:27.952Z,17.0
2018-09-20T00:52:26.687Z,17.0
2018-09-20T00:57:28.349Z,16.9
2018-09-20T01:02:27.745Z,16.8
2018-09-20T01:07:27.726Z,16.8
2018-09-20T01:12:27.829Z,16.9
2018-09-20T01:17:28.247Z,16.8
2018-09-20T01:22:27.316Z,16.8
2018-09-20T01:27:26.998Z,16.8
2018-09-20T01:32:26.996Z,16.7
2018-09-20T01:37:27.421Z,16.4
2018-09-20T01:42:27.790Z,16.4
2018-09-20T01:47:29.055Z,16.3
2018-09-20T01:52:26.991Z,16.4
2018-09-20T01:57:27.655Z,16.4
2018-09-20T02:02:27.877Z,16.4
2018-09-20T02:07:27.382Z,16.4
2018-09-20T02:12:28.460Z,16.4
2018-09-20T02:17:28.190Z,16.4
2018-09-20T02:22:27.759Z,16.3
2018-09-20T02:27:27.745Z,16.3
2018-09-20T02:32:27.520Z,16.2
2018-09-20T02:37:27.003Z,16.2
2018-09-20T02:42:27.126Z,16.1
2018-09-20T02:47:28.345Z,16.0
2018-09-20T02:52:27.524Z,15.9
2018-09-20T02:57:26.956Z,15.8
2018-09-20T03:02:27.850Z,15.7
2018-09-20T03:07:27.157Z,15.7
2018-09-20T03:12:27.734Z,15.6
2018-09-20T03:17:29.205Z,15.7
2018-09-20T03:22:27.018Z,15.7
2018-09-20T03:27:27.216Z,15.7
2018-09-20T03:32:27.289Z,15.7
2018-09-20T03:37:27.334Z,15.7
2018-09-20T03:42:27.023Z,15.7
2018-09-20T03:47:27.943Z,15.7
2018-09-20T03:52:27.381Z,15.7
2018-09-20T03:57:27.886Z,15.5
2018-09-20T04:02:27.900Z,15.4
2018-09-20T04:07:27.557Z,15.5
2018-09-20T04:12:27.330Z,15.4
2018-09-20T04:17:28.245Z,15.5
2018-09-20T04:22:29.185Z,15.5
2018-09-20T04:27:27.511Z,15.5
2018-09-20T04:32:27.998Z,15.5
2018-09-20T04:37:28.082Z,15.4
2018-09-20T04:42:27.116Z,15.5
2018-09-20T04:47:28.713Z,15.5
2018-09-20T04:52:27.960Z,15.4
2018-09-20T04:57:28.065Z,15.4
2018-09-20T05:02:27.911Z,15.4
2018-09-20T05:07:28.012Z,15.4
2018-09-20T05:12:27.852Z,15.4
2018-09-20T05:17:28.565Z,15.2
2018-09-20T05:22:27.418Z,15.2
2018-09-20T05:27:29.012Z,15.3
2018-09-20T05:32:27.674Z,15.4
2018-09-20T05:37:28.136Z,15.4
2018-09-20T05:42:28.143Z,15.5
2018-09-20T05:47:27.968Z,15.7
2018-09-20T05:52:28.068Z,15.9
2018-09-20T05:57:28.173Z,16.2
2018-09-20T06:02:28.049Z,16.4
2018-09-20T06:07:27.437Z,16.6
2018-09-20T06:12:27.930Z,16.9
2018-09-20T06:17:28.097Z,17.4
2018-09-20T06:22:27.610Z,17.3
2018-09-20T06:27:28.051Z,17.9
2018-09-20T06:32:27.782Z,17.9
2018-09-20T06:37:27.469Z,18.1
2018-09-20T06:42:28.811Z,19.1
2018-09-20T06:47:28.706Z,19.0
2018-09-20T06:52:28.040Z,19.1
2018-09-20T06:57:28.219Z,19.0
2018-09-20T07:02:27.278Z,19.0
2018-09-20T07:07:27.885Z,19.1
2018-09-20T07:12:28.294Z,19.3
2018-09-20T07:17:28.960Z,19.5
2018-09-20T07:22:27.864Z,19.7
2018-09-20T07:27:28.749Z,20.0
2018-09-20T07:32:28.088Z,20.6
2018-09-20T07:37:28.203Z,20.6
2018-09-20T07:42:28.868Z,20.9
2018-09-20T07:47:27.959Z,21.3
2018-09-20T07:52:27.780Z,21.6
2018-09-20T07:57:28.120Z,21.9
2018-09-20T08:02:29.595Z,22.2
2018-09-20T08:07:27.799Z,22.6
2018-09-20T08:12:27.742Z,22.9
2018-09-20T08:17:28.726Z,23.2
2018-09-20T08:22:27.496Z,23.5
2018-09-20T08:27:28.034Z,23.8
2018-09-20T08:32:27.396Z,24.5
2018-09-20T08:37:28.227Z,24.5
2018-09-20T08:42:28.185Z,24.9
2018-09-20T08:47:28.380Z,25.6
2018-09-20T08:52:27.845Z,25.6
2018-09-20T08:57:28.407Z,26.0
2018-09-20T09:02:28.763Z,26.4
2018-09-20T09:07:27.952Z,27.2
2018-09-20T09:12:27.596Z,27.5
2018-09-20T09:17:27.807Z,27.5
2018-09-20T09:22:27.587Z,27.9
2018-09-20T09:27:27.706Z,28.3
2018-09-20T09:32:28.388Z,28.7
2018-09-20T09:37:27.788Z,29.1
2018-09-20T09:42:27.787Z,29.4
2018-09-20T09:47:28.548Z,29.9
2018-09-20T09:52:27.951Z,29.9
2018-09-20T09:57:27.926Z,30.2
2018-09-20T10:02:28.088Z,30.6
2018-09-20T10:07:28.672Z,30.8
2018-09-20T10:12:27.974Z,31.1
2018-09-20T10:17:27.668Z,31.5
2018-09-20T10:22:27.827Z,31.2
2018-09-20T10:27:28.080Z,31.5
2018-09-20T10:32:28.132Z,31.4
2018-09-20T10:37:29.003Z,31.5
2018-09-20T10:42:27.996Z,31.6
2018-09-20T10:47:27.811Z,31.0
2018-09-20T10:52:28.744Z,31.3
2018-09-20T10:57:27.947Z,31.7
2018-09-20T11:02:28.510Z,32.0
2018-09-20T11:07:27.614Z,31.9
2018-09-20T11:12:28.288Z,31.5
2018-09-20T11:17:28.326Z,31.5
2018-09-20T11:22:29.048Z,31.1
2018-09-20T11:27:27.505Z,31.1
2018-09-20T11:32:28.287Z,30.8
2018-09-20T11:37:27.999Z,30.9
2018-09-20T11:42:29.429Z,31.2
2018-09-20T11:47:28.892Z,31.5
2018-09-20T11:52:28.456Z,31.9
2018-09-20T11:57:28.416Z,31.9
2018-09-20T12:02:28.771Z,32.1
2018-09-20T12:07:28.261Z,32.2
2018-09-20T12:12:28.002Z,32.2
2018-09-20T12:17:27.881Z,32.2
2018-09-20T12:22:28.391Z,32.5
2018-09-20T12:27:28.307Z,32.5
2018-09-20T12:32:27.446Z,32.6
2018-09-20T12:37:28.545Z,32.8
2018-09-20T12:42:27.995Z,32.7
2018-09-20T12:47:28.734Z,33.1
2018-09-20T12:52:28.849Z,33.0
2018-09-20T12:57:27.363Z,32.6
2018-09-20T13:02:27.887Z,33.0
2018-09-20T13:07:28.585Z,33.6
2018-09-20T13:12:27.683Z,33.6
2018-09-20T13:17:28.197Z,33.4
2018-09-20T13:22:27.365Z,33.6
2018-09-20T13:27:28.528Z,33.5
2018-09-20T13:32:28.104Z,33.6
2018-09-20T13:37:27.814Z,33.5
2018-09-20T13:42:28.789Z,33.7
2018-09-20T13:47:29.737Z,34.1
2018-09-20T13:52:28.108Z,34.3
2018-09-20T13:57:27.857Z,34.7
2018-09-20T14:02:27.918Z,34.7
2018-09-20T14:07:28.944Z,34.7
2018-09-20T14:12:28.339Z,35.3
2018-09-20T14:17:28.195Z,35.8
2018-09-20T14:22:28.106Z,36.5
2018-09-20T14:27:27.508Z,39.4
2018-09-20T14:32:28.379Z,39.3
2018-09-20T14:37:27.427Z,40.9
2018-09-20T14:42:27.704Z,42.2
2018-09-20T14:47:28.685Z,43.2
2018-09-20T14:52:27.850Z,44.7
2018-09-20T14:57:27.612Z,44.6
2018-09-20T15:02:28.199Z,45.1
2018-09-20T15:07:27.372Z,45.6
2018-09-20T15:12:27.822Z,45.9
2018-09-20T15:17:28.642Z,46.8
2018-09-20T15:22:27.702Z,47.7
2018-09-20T15:27:28.266Z,47.7
2018-09-20T15:32:28.111Z,48.4
2018-09-20T15:37:28.279Z,48.7
2018-09-20T15:42:27.808Z,48.4
2018-09-20T15:47:27.612Z,47.9
2018-09-20T15:52:27.477Z,47.0
2018-09-20T15:57:28.017Z,46.1
2018-09-20T16:02:27.855Z,46.1
2018-09-20T16:07:27.924Z,46.2
2018-09-20T16:12:28.006Z,46.2
2018-09-20T16:17:28.225Z,46.2
2018-09-20T16:22:27.610Z,46.4
2018-09-20T16:27:28.084Z,46.3
2018-09-20T16:32:27.507Z,46.1
2018-09-20T16:37:28.115Z,45.8
2018-09-20T16:42:28.392Z,46.0
2018-09-20T16:47:27.635Z,45.0
2018-09-20T16:52:27.538Z,45.0
2018-09-20T16:57:28.096Z,44.1
2018-09-20T17:02:28.049Z,42.5
2018-09-20T17:07:27.472Z,40.0
2018-09-20T17:12:27.625Z,39.9
2018-09-20T17:17:28.393Z,38.2
2018-09-20T17:22:27.494Z,36.4
2018-09-20T17:27:27.835Z,34.2
2018-09-20T17:32:27.627Z,32.6
2018-09-20T17:37:27.806Z,31.3
2018-09-20T17:42:29.383Z,30.4
2018-09-20T17:47:28.241Z,28.9
2018-09-20T17:52:28.414Z,28.8
2018-09-20T17:57:27.274Z,28.4
2018-09-20T18:02:27.376Z,27.8
2018-09-20T18:07:27.827Z,27.0
2018-09-20T18:12:27.629Z,26.7
2018-09-20T18:17:28.591Z,26.7
2018-09-20T18:22:27.249Z,26.3
2018-09-20T18:27:28.936Z,26.2
2018-09-20T18:32:27.684Z,25.8
2018-09-20T18:37:27.635Z,25.7
2018-09-20T18:42:27.265Z,25.5
2018-09-20T18:47:27.577Z,25.3
2018-09-20T18:52:27.781Z,24.9
2018-09-20T18:57:27.284Z,24.7
2018-09-20T19:02:27.786Z,24.6
2018-09-20T19:07:27.232Z,24.4
2018-09-20T19:12:27.255Z,24.0
2018-09-20T19:17:27.349Z,23.7
2018-09-20T19:22:26.914Z,23.7
2018-09-20T19:27:27.578Z,23.3
2018-09-20T19:32:27.980Z,23.3
2018-09-20T19:37:27.121Z,23.2
2018-09-20T19:42:27.594Z,23.0
2018-09-20T19:47:27.033Z,22.9
2018-09-20T19:52:28.469Z,22.7
2018-09-20T19:57:26.878Z,22.5
2018-09-20T20:02:27.287Z,22.4
2018-09-20T20:07:28.353Z,22.3
2018-09-20T20:12:27.685Z,22.1
2018-09-20T20:17:27.874Z,21.8
2018-09-20T20:22:28.283Z,21.8
2018-09-20T20:27:27.289Z,21.4
2018-09-20T20:32:27.205Z,21.2
2018-09-20T20:37:28.106Z,21.2
2018-09-20T20:42:27.640Z,21.0
2018-09-20T20:47:27.807Z,20.9
2018-09-20T20:52:26.832Z,20.5
2018-09-20T20:57:27.513Z,20.5
2018-09-20T21:02:27.058Z,20.4
2018-09-20T21:07:27.715Z,20.1
2018-09-20T21:12:26.929Z,20.1
2018-09-20T21:17:27.775Z,20.0
2018-09-20T21:22:27.132Z,19.8
2018-09-20T21:27:27.606Z,19.7
2018-09-20T21:32:27.117Z,19.7
2018-09-20T21:37:27.118Z,19.6
2018-09-20T21:42:27.036Z,19.5
2018-09-20T21:47:27.880Z,19.4
2018-09-20T21:52:28.424Z,19.3
2018-09-20T21:57:26.647Z,19.2
2018-09-20T22:02:27.732Z,19.0
2018-09-20T22:07:28.118Z,18.9
2018-09-20T22:12:27.083Z,18.9
2018-09-20T22:23:04.826Z,18.5
2018-09-20T22:28:03.353Z,18.2
2018-09-20T22:33:03.008Z,18.1
2018-09-20T22:38:03.625Z,18.1
2018-09-20T22:43:02.636Z,18.0
2018-09-20T22:48:04.575Z,17.9
2018-09-20T22:53:03.353Z,17.8
2018-09-20T22:58:02.677Z,17.6
2018-09-20T23:03:03.213Z,17.5
2018-09-20T23:08:03.753Z,17.5
2018-09-20T23:12:27.955Z,17.5
2018-09-20T23:17:28.106Z,17.5
2018-09-20T23:22:27.637Z,17.5
2018-09-20T23:27:27.871Z,17.5
2018-09-20T23:32:27.302Z,17.4
2018-09-20T23:37:29.567Z,17.3
2018-09-20T23:42:27.530Z,17.2
2018-09-20T23:47:28.496Z,17.2
2018-09-20T23:52:26.991Z,17.1
2018-09-20T23:57:27.356Z,17.1
